Time;durP1;ratioP1;P1;durP2;ratioP2;P2;SDS_P1;SDS_P2;PMS_P1;PMS_P2;Temp;Humidity;BMP_temperature;BMP_pressure;BME280_temperature;BME280_humidity;BME280_pressure;Samples;Min_cycle;Max_cycle;Signal;HPM_P1;HPM_P2
2022/10/05 00:02:21;;;;;;;12.93;8.05;;;15.40;99.90;;;;;;5045971;28;20068;-80
2022/10/05 00:04:55;;;;;;;9.73;7.30;;;15.10;99.90;;;;;;5047526;28;20044;-80
2022/10/05 00:07:23;;;;;;;8.98;7.13;;;15.20;99.90;;;;;;5046543;28;20036;-80
2022/10/05 00:09:57;;;;;;;19.10;6.95;;;15.40;99.90;;;;;;5047415;28;20049;-80
2022/10/05 00:12:24;;;;;;;14.15;7.45;;;15.10;99.90;;;;;;5041803;28;20045;-81
2022/10/05 00:14:54;;;;;;;11.00;6.30;;;15.10;99.90;;;;;;5022955;28;20052;-79
2022/10/05 00:17:22;;;;;;;9.35;7.22;;;15.20;99.90;;;;;;5046983;28;20055;-78
2022/10/05 00:19:52;;;;;;;13.32;8.00;;;15.20;99.90;;;;;;5024556;28;20128;-80
2022/10/05 00:22:21;;;;;;;;;;;15.00;99.90;;;;;;5046643;28;20412;-79
2022/10/05 00:24:49;;;;;;;10.05;6.63;;;15.00;99.90;;;;;;5046464;28;19921;-80
2022/10/05 00:27:23;;;;;;;10.40;7.05;;;15.10;99.90;;;;;;5047953;28;20045;-79
2022/10/05 00:29:51;;;;;;;9.38;6.63;;;15.00;99.90;;;;;;5009942;28;20048;-79
2022/10/05 00:32:17;;;;;;;9.15;7.20;;;15.00;99.90;;;;;;5047662;28;20468;-78
2022/10/05 00:34:44;;;;;;;8.15;7.10;;;15.10;99.90;;;;;;5046668;28;20076;-81
2022/10/05 00:37:12;;;;;;;8.98;6.85;;;15.00;99.90;;;;;;5047788;28;20037;-80
2022/10/05 00:39:39;;;;;;;6.70;5.65;;;15.30;99.90;;;;;;5043718;28;20059;-80
2022/10/05 00:42:33;;;;;;;11.55;6.00;;;15.10;99.90;;;;;;5041084;28;20037;-78
2022/10/05 00:45:05;;;;;;;11.00;5.65;;;15.30;99.90;;;;;;5038751;28;20087;-78
2022/10/05 00:48:08;;;;;;;7.75;5.18;;;15.00;99.90;;;;;;5028461;28;20562;-78
2022/10/05 00:50:45;;;;;;;6.22;5.10;;;15.30;99.90;;;;;;5028811;28;20033;-79
2022/10/05 00:53:33;;;;;;;9.20;5.13;;;15.30;99.90;;;;;;5033016;28;20041;-78
2022/10/05 00:56:23;;;;;;;9.52;6.03;;;15.00;99.90;;;;;;5048182;28;20041;-79
2022/10/05 00:59:04;;;;;;;14.63;6.20;;;15.10;99.90;;;;;;5047908;28;20047;-78
2022/10/05 01:01:52;;;;;;;10.25;6.30;;;15.00;99.90;;;;;;5048840;28;20059;-81
2022/10/05 01:04:31;;;;;;;7.78;5.00;;;15.00;99.90;;;;;;5042780;28;20045;-79
2022/10/05 01:07:07;;;;;;;8.38;4.75;;;15.20;99.90;;;;;;5048404;28;20039;-78
2022/10/05 01:09:37;;;;;;;13.13;6.55;;;15.20;99.90;;;;;;5048356;28;20051;-80
2022/10/05 01:12:17;;;;;;;6.35;5.28;;;15.00;99.90;;;;;;5048820;28;20094;-79
2022/10/05 01:15:09;;;;;;;5.88;4.90;;;15.00;99.90;;;;;;5044565;28;20053;-80
2022/10/05 01:18:03;;;;;;;10.35;4.75;;;15.00;99.90;;;;;;5050891;28;20040;-80
2022/10/05 01:20:48;;;;;;;5.15;4.43;;;15.00;99.90;;;;;;5045514;28;20047;-78
2022/10/05 01:23:23;;;;;;;7.53;4.72;;;15.20;99.90;;;;;;5049365;28;20048;-80
2022/10/05 01:26:14;;;;;;;8.25;5.70;;;15.10;99.90;;;;;;5025364;28;20534;-80
2022/10/05 01:28:46;;;;;;;5.55;4.70;;;14.90;99.90;;;;;;5029020;28;20060;-79
2022/10/05 01:31:22;;;;;;;7.40;4.78;;;15.10;99.90;;;;;;5051141;28;20056;-81
2022/10/05 01:34:02;;;;;;;7.57;5.57;;;15.10;99.90;;;;;;5049802;28;20048;-79
2022/10/05 01:36:42;;;;;;;7.05;5.82;;;15.00;99.90;;;;;;5045774;28;20091;-79
2022/10/05 01:39:22;;;;;;;10.80;5.32;;;14.90;99.90;;;;;;5049271;28;20061;-79
2022/10/05 01:42:02;;;;;;;11.18;5.80;;;15.00;99.90;;;;;;5052717;28;20419;-80
2022/10/05 01:44:47;;;;;;;7.22;5.50;;;15.00;99.90;;;;;;5031240;28;20045;-79
2022/10/05 01:47:25;;;;;;;7.80;6.03;;;15.00;99.90;;;;;;5049217;28;20474;-81
2022/10/05 01:50:10;;;;;;;11.73;6.45;;;15.20;99.90;;;;;;5049817;28;20124;-78
2022/10/05 01:53:05;;;;;;;8.27;6.68;;;15.20;99.90;;;;;;5042375;28;20510;-79
2022/10/05 01:55:42;;;;;;;6.15;5.53;;;15.20;99.90;;;;;;5048940;28;20041;-80
2022/10/05 01:58:43;;;;;;;11.25;6.15;;;14.90;99.90;;;;;;5049626;28;20077;-79
2022/10/05 02:01:19;;;;;;;16.83;7.15;;;15.00;99.90;;;;;;5046870;28;20264;-80
2022/10/05 02:04:09;;;;;;;11.05;7.25;;;14.70;99.90;;;;;;5050440;28;20033;-79
2022/10/05 02:06:43;;;;;;;14.63;6.47;;;14.80;99.90;;;;;;5041481;28;20041;-78
2022/10/05 02:09:30;;;;;;;9.60;7.68;;;15.10;99.90;;;;;;5044070;28;20049;-79
2022/10/05 02:12:12;;;;;;;11.13;7.07;;;14.80;99.90;;;;;;5046679;28;20045;-80
2022/10/05 02:14:44;;;;;;;17.00;7.70;;;15.10;99.90;;;;;;5045157;28;20067;-78
2022/10/05 02:17:16;;;;;;;9.70;7.63;;;14.90;99.90;;;;;;5046310;28;20087;-79
2022/10/05 02:19:47;;;;;;;10.48;7.50;;;14.70;99.90;;;;;;5046847;28;20029;-79
2022/10/05 02:22:26;;;;;;;10.43;7.10;;;15.10;99.90;;;;;;5031774;28;20037;-78
2022/10/05 02:25:04;;;;;;;12.15;7.28;;;15.00;99.90;;;;;;5043717;28;20033;-79
2022/10/05 02:27:35;;;;;;;8.73;6.57;;;15.10;99.90;;;;;;5048482;28;20056;-78
2022/10/05 02:30:07;;;;;;;9.88;7.25;;;14.90;99.90;;;;;;5046573;28;20076;-79
2022/10/05 02:32:41;;;;;;;9.45;6.53;;;14.80;99.90;;;;;;5047346;28;20507;-80
2022/10/05 02:35:18;;;;;;;12.20;6.45;;;14.80;99.90;;;;;;5047638;28;20037;-80
2022/10/05 02:37:53;;;;;;;11.98;6.25;;;15.00;99.90;;;;;;5049268;28;20049;-78
2022/10/05 02:40:38;;;;;;;9.23;6.85;;;15.20;99.90;;;;;;5043084;28;20139;-78
2022/10/05 02:43:29;;;;;;;9.18;6.13;;;15.00;99.90;;;;;;5047787;28;20048;-79
2022/10/05 02:45:58;;;;;;;;;;;14.90;99.90;;;;;;5048024;28;20553;-79
2022/10/05 02:48:38;;;;;;;7.32;5.45;;;15.20;99.90;;;;;;5051250;28;19972;-80
2022/10/05 02:51:30;;;;;;;7.85;5.97;;;15.20;99.90;;;;;;5050539;28;20045;-79
2022/10/05 02:54:28;;;;;;;9.52;6.05;;;15.10;99.90;;;;;;5031312;28;20044;-79
2022/10/05 02:57:09;;;;;;;10.63;6.95;;;14.80;99.90;;;;;;5050883;28;20076;-79
2022/10/05 02:59:41;;;;;;;11.00;6.55;;;14.90;99.90;;;;;;5048931;28;20033;-80
2022/10/05 03:02:29;;;;;;;8.02;5.82;;;15.00;99.90;;;;;;5044144;28;20041;-79
2022/10/05 03:05:08;;;;;;;6.65;5.97;;;15.00;99.90;;;;;;5009594;28;20111;-79
2022/10/05 03:08:12;;;;;;;12.30;5.45;;;15.10;99.90;;;;;;5047007;28;20088;-80
2022/10/05 03:11:00;;;;;;;7.07;5.57;;;15.20;99.90;;;;;;4978724;28;20110;-78
2022/10/05 03:13:47;;;;;;;6.15;4.60;;;15.00;99.90;;;;;;5038951;28;20049;-77
2022/10/05 03:16:24;;;;;;;8.45;5.50;;;14.90;99.90;;;;;;5046420;28;20037;-79
2022/10/05 03:19:09;;;;;;;8.15;6.00;;;14.80;99.90;;;;;;5029249;28;20080;-79
2022/10/05 03:21:53;;;;;;;7.22;5.47;;;15.10;99.90;;;;;;5028865;28;20049;-78
2022/10/05 03:24:45;;;;;;;7.88;5.40;;;15.10;99.90;;;;;;5044640;28;20040;-78
2022/10/05 03:27:25;;;;;;;8.27;5.93;;;15.00;99.90;;;;;;5013095;28;20045;-77
2022/10/05 03:29:51;;;;;;;10.23;5.97;;;15.10;99.90;;;;;;5046191;28;20049;-77
2022/10/05 03:32:23;;;;;;;8.40;5.15;;;14.90;99.90;;;;;;5030222;28;20071;-79
2022/10/05 03:35:29;;;;;;;8.93;5.25;;;15.00;99.90;;;;;;5027603;28;20556;-79
2022/10/05 03:38:08;;;;;;;10.40;4.43;;;15.10;99.90;;;;;;4967249;28;20611;-78
2022/10/05 03:40:54;;;;;;;8.90;6.22;;;14.90;99.90;;;;;;4967937;28;20050;-77
2022/10/05 03:43:39;;;;;;;7.43;4.93;;;15.00;99.90;;;;;;5020243;28;20063;-79
2022/10/05 03:46:20;;;;;;;9.88;5.00;;;15.00;99.90;;;;;;5028377;28;20563;-78
2022/10/05 03:48:54;;;;;;;5.75;3.70;;;15.10;99.90;;;;;;5053777;28;20049;-79
2022/10/05 03:51:35;;;;;;;6.10;4.85;;;15.10;99.90;;;;;;5036318;28;20446;-79
2022/10/05 03:54:41;;;;;;;4.25;3.85;;;14.80;99.90;;;;;;5037425;28;20041;-78
2022/10/05 03:57:12;;;;;;;6.72;3.80;;;14.80;99.90;;;;;;5032847;28;20116;-78
2022/10/05 03:59:49;;;;;;;6.05;4.28;;;15.00;99.90;;;;;;5052486;28;20037;-78
2022/10/05 04:02:23;;;;;;;6.18;4.63;;;14.80;99.90;;;;;;5038329;28;20042;-80
2022/10/05 04:05:01;;;;;;;9.35;5.05;;;14.80;99.90;;;;;;5049541;28;20045;-78
2022/10/05 04:07:42;;;;;;;6.10;4.45;;;14.80;99.90;;;;;;5047527;28;20068;-80
2022/10/05 04:10:32;;;;;;;8.02;4.38;;;14.80;99.90;;;;;;5044975;28;20356;-79
2022/10/05 04:13:10;;;;;;;5.95;4.00;;;15.00;99.90;;;;;;5042709;28;20384;-80
2022/10/05 04:15:51;;;;;;;4.78;3.60;;;14.80;99.90;;;;;;5047149;28;20048;-79
2022/10/05 04:18:27;;;;;;;6.00;3.97;;;14.80;99.90;;;;;;5048474;28;20428;-78
2022/10/05 04:20:58;;;;;;;11.50;4.40;;;15.00;99.90;;;;;;5043405;28;20518;-77
2022/10/05 04:23:46;;;;;;;7.78;4.88;;;15.10;99.90;;;;;;5027910;28;20041;-77
2022/10/05 04:26:46;;;;;;;5.75;3.78;;;14.80;99.90;;;;;;5043105;28;20040;-80
2022/10/05 04:29:30;;;;;;;8.33;4.53;;;15.00;99.90;;;;;;5039556;28;20048;-78
2022/10/05 04:32:05;;;;;;;6.22;3.97;;;14.80;99.90;;;;;;5042970;28;20435;-79
2022/10/05 04:34:36;;;;;;;6.18;3.70;;;14.90;99.90;;;;;;5046186;28;20411;-78
2022/10/05 04:37:06;;;;;;;9.27;3.40;;;14.80;99.90;;;;;;5029696;28;20102;-78
2022/10/05 04:39:53;;;;;;;7.50;3.60;;;14.90;99.90;;;;;;5045613;28;20145;-78
2022/10/05 04:42:31;;;;;;;7.25;5.63;;;14.90;99.90;;;;;;5042683;28;20040;-78
2022/10/05 04:45:24;;;;;;;5.72;4.90;;;14.90;99.90;;;;;;5044159;28;20104;-78
2022/10/05 04:48:26;;;;;;;7.05;5.57;;;14.80;99.90;;;;;;5028518;28;20098;-78
2022/10/05 04:51:01;;;;;;;7.00;5.38;;;14.90;99.90;;;;;;5017773;28;20131;-78
2022/10/05 04:53:32;;;;;;;8.63;6.40;;;14.90;99.90;;;;;;5025927;28;20053;-79
2022/10/05 04:56:10;;;;;;;7.20;5.28;;;14.80;99.90;;;;;;5046891;28;20037;-78
2022/10/05 04:58:42;;;;;;;9.32;5.95;;;14.90;99.90;;;;;;5045573;28;20056;-77
2022/10/05 05:01:26;;;;;;;10.40;5.97;;;14.80;99.90;;;;;;5045547;28;20041;-79
2022/10/05 05:04:07;;;;;;;10.77;6.05;;;14.90;99.90;;;;;;5044593;28;20037;-80
2022/10/05 05:06:50;;;;;;;9.50;5.90;;;14.90;99.90;;;;;;5043081;28;20075;-77
2022/10/05 05:09:41;;;;;;;8.55;7.22;;;14.70;99.90;;;;;;5045097;28;20078;-78
2022/10/05 05:12:29;;;;;;;12.02;6.90;;;14.90;99.90;;;;;;5044391;28;20048;-80
2022/10/05 05:15:21;;;;;;;9.60;6.35;;;14.90;99.90;;;;;;5042561;28;20037;-78
2022/10/05 05:17:59;;;;;;;12.23;6.57;;;14.80;99.90;;;;;;5050931;28;20033;-79
2022/10/05 05:20:39;;;;;;;10.10;6.47;;;14.90;99.90;;;;;;5047033;28;20573;-79
2022/10/05 05:23:26;;;;;;;7.63;6.05;;;14.90;99.90;;;;;;5024535;28;20311;-78
2022/10/05 05:26:04;;;;;;;13.27;7.05;;;14.80;99.90;;;;;;5021936;28;20049;-78
2022/10/05 05:28:46;;;;;;;9.07;7.63;;;14.60;99.90;;;;;;5044644;28;20044;-77
2022/10/05 05:31:26;;;;;;;8.35;6.30;;;14.70;99.90;;;;;;5046286;28;20057;-79
2022/10/05 05:34:34;;;;;;;8.25;5.55;;;14.60;99.90;;;;;;5026849;28;20400;-79
2022/10/05 05:37:30;;;;;;;9.90;6.68;;;14.60;99.90;;;;;;5031257;28;20102;-78
2022/10/05 05:40:23;;;;;;;6.18;5.57;;;14.60;99.90;;;;;;5027876;28;20049;-77
2022/10/05 05:42:59;;;;;;;8.48;6.65;;;14.60;99.90;;;;;;5046117;28;20076;-79
2022/10/05 05:45:36;;;;;;;10.07;6.80;;;14.70;99.90;;;;;;5015727;28;20053;-79
2022/10/05 05:48:11;;;;;;;11.98;7.18;;;14.70;99.90;;;;;;5040799;28;20399;-78
2022/10/05 05:51:08;;;;;;;8.80;6.68;;;14.80;99.90;;;;;;5049731;28;20475;-80
2022/10/05 05:53:56;;;;;;;11.52;7.00;;;14.80;99.90;;;;;;5030557;28;20402;-79
2022/10/05 05:56:32;;;;;;;13.93;6.53;;;14.80;99.90;;;;;;5040163;28;20037;-78
2022/10/05 05:59:02;;;;;;;9.98;7.32;;;14.70;99.90;;;;;;5043389;28;20484;-78
2022/10/05 06:01:47;;;;;;;8.63;6.28;;;14.80;99.90;;;;;;5049355;28;20041;-79
2022/10/05 06:04:53;;;;;;;8.40;6.80;;;14.70;99.90;;;;;;5049588;28;20115;-78
2022/10/05 06:07:24;;;;;;;14.95;5.63;;;14.80;99.90;;;;;;5035227;28;20118;-78
2022/10/05 06:10:04;;;;;;;9.35;7.43;;;14.60;99.90;;;;;;5048698;28;20094;-79
2022/10/05 06:12:37;;;;;;;9.45;6.20;;;14.80;99.90;;;;;;5045619;28;20053;-77
2022/10/05 06:15:22;;;;;;;8.25;7.35;;;14.50;99.90;;;;;;5047153;28;20037;-79
2022/10/05 06:17:55;;;;;;;9.38;6.30;;;14.60;99.90;;;;;;5035344;28;20048;-79
2022/10/05 06:20:38;;;;;;;9.07;5.75;;;14.80;99.90;;;;;;5031490;28;20040;-79
2022/10/05 06:23:15;;;;;;;10.63;5.50;;;14.70;99.90;;;;;;5047923;28;20043;-80
2022/10/05 06:26:24;;;;;;;7.10;6.22;;;14.80;99.90;;;;;;5011774;28;20045;-80
2022/10/05 06:29:04;;;;;;;7.63;5.32;;;14.60;99.90;;;;;;4989896;28;20049;-79
2022/10/05 06:32:04;;;;;;;7.30;5.28;;;14.70;99.90;;;;;;5047998;28;20056;-80
2022/10/05 06:34:30;;;;;;;7.97;5.85;;;14.80;99.90;;;;;;5030422;28;20372;-78
2022/10/05 06:37:00;;;;;;;10.00;7.05;;;14.80;99.90;;;;;;5049618;28;20048;-80
2022/10/05 06:39:35;;;;;;;;;;;14.70;99.90;;;;;;5048421;28;20055;-78
2022/10/05 06:42:29;;;;;;;15.52;6.70;;;14.70;99.90;;;;;;5046170;28;19927;-79
2022/10/05 06:44:57;;;;;;;9.00;6.25;;;14.70;99.90;;;;;;5046927;28;20365;-78
2022/10/05 06:47:58;;;;;;;7.22;5.25;;;14.90;99.90;;;;;;5047058;28;20048;-77
2022/10/05 06:50:52;;;;;;;10.40;5.68;;;14.90;99.90;;;;;;5017813;28;20460;-78
2022/10/05 06:53:29;;;;;;;6.80;5.10;;;14.90;99.90;;;;;;5023533;28;20057;-77
2022/10/05 06:56:25;;;;;;;8.38;6.22;;;14.90;99.90;;;;;;5023148;28;20059;-79
2022/10/05 06:59:32;;;;;;;6.22;5.05;;;14.60;99.90;;;;;;5038735;28;20044;-78
2022/10/05 07:02:11;;;;;;;8.48;5.65;;;14.90;99.90;;;;;;4935762;28;20801;-76
2022/10/05 07:04:56;;;;;;;7.22;5.57;;;14.70;99.90;;;;;;5018919;28;20053;-75
2022/10/05 07:07:42;;;;;;;7.70;5.28;;;14.70;99.90;;;;;;5047737;28;20048;-76
2022/10/05 07:10:29;;;;;;;10.52;5.78;;;14.70;99.90;;;;;;5024557;28;20106;-80
2022/10/05 07:13:33;;;;;;;4.13;3.70;;;14.90;99.90;;;;;;5046227;28;20083;-79
2022/10/05 07:16:17;;;;;;;7.15;4.63;;;14.70;99.90;;;;;;5046146;28;20408;-79
2022/10/05 07:19:18;;;;;;;6.65;4.28;;;14.70;99.90;;;;;;5037812;28;20513;-79
2022/10/05 07:22:28;;;;;;;9.27;5.22;;;14.90;99.90;;;;;;4992472;28;20060;-77
2022/10/05 07:25:10;;;;;;;5.63;3.72;;;14.90;99.90;;;;;;5026182;28;20055;-82
2022/10/05 07:27:56;;;;;;;5.18;3.70;;;14.80;99.90;;;;;;5045921;28;20462;-78
2022/10/05 07:30:23;;;;;;;5.22;2.72;;;14.80;99.90;;;;;;5039532;28;20045;-78
2022/10/05 07:32:48;;;;;;;11.68;4.40;;;14.90;99.90;;;;;;5040580;28;20084;-80
2022/10/05 07:38:23;;;;;;;5.47;2.80;;;15.00;99.90;;;;;;5044190;28;20052;-75
2022/10/05 07:40:57;;;;;;;4.68;3.25;;;15.00;99.90;;;;;;5041043;28;20180;-78
2022/10/05 07:43:41;;;;;;;5.80;3.17;;;15.20;99.90;;;;;;5027882;28;20095;-79
2022/10/05 07:46:16;;;;;;;4.85;3.22;;;15.10;99.90;;;;;;5029375;28;20427;-79
2022/10/05 07:48:58;;;;;;;5.70;3.17;;;15.10;99.90;;;;;;5043893;28;20369;-78
2022/10/05 07:51:43;;;;;;;5.00;2.97;;;15.10;99.90;;;;;;5046148;28;20080;-77
2022/10/05 07:54:24;;;;;;;7.30;3.17;;;15.10;99.90;;;;;;5047819;28;20045;-81
2022/10/05 07:57:14;;;;;;;4.55;3.28;;;15.10;99.90;;;;;;5019716;28;20099;-78
2022/10/05 08:00:00;;;;;;;4.32;2.58;;;15.10;99.90;;;;;;5039471;28;20449;-77
2022/10/05 08:02:57;;;;;;;3.92;3.28;;;15.20;99.90;;;;;;5019102;28;20048;-77
2022/10/05 08:05:29;;;;;;;5.63;2.58;;;15.20;99.90;;;;;;5046416;28;20044;-75
2022/10/05 08:08:14;;;;;;;3.30;2.13;;;15.10;99.90;;;;;;5008089;28;20056;-76
2022/10/05 08:10:43;;;;;;;2.60;1.70;;;15.20;99.90;;;;;;5006217;28;20124;-79
2022/10/05 08:13:29;;;;;;;2.95;2.00;;;15.10;99.90;;;;;;5047110;28;20102;-76
2022/10/05 08:15:59;;;;;;;6.00;2.97;;;15.20;99.90;;;;;;5046445;28;20077;-76
2022/10/05 08:18:43;;;;;;;4.63;2.22;;;15.30;99.90;;;;;;5038810;28;20049;-77
2022/10/05 08:21:12;;;;;;;4.82;2.08;;;15.50;99.90;;;;;;5039225;28;20068;-76
2022/10/05 08:24:04;;;;;;;4.20;1.27;;;15.40;99.90;;;;;;5048329;28;20060;-75
2022/10/05 08:26:49;;;;;;;2.95;1.20;;;15.50;99.90;;;;;;5031177;28;20045;-77
2022/10/05 08:29:37;;;;;;;2.72;1.85;;;15.60;99.90;;;;;;5039660;28;20128;-77
2022/10/05 08:32:26;;;;;;;7.28;1.60;;;15.50;99.90;;;;;;5039210;28;20436;-77
2022/10/05 08:35:12;;;;;;;5.10;1.17;;;15.70;99.90;;;;;;5041903;28;20041;-77
2022/10/05 08:37:41;;;;;;;1.42;1.33;;;15.70;99.90;;;;;;5045727;28;20063;-76
2022/10/05 08:40:29;;;;;;;2.45;1.73;;;15.80;99.90;;;;;;5048197;28;20239;-76
2022/10/05 08:43:07;;;;;;;1.50;1.00;;;15.70;99.90;;;;;;5043533;28;20147;-78
2022/10/05 08:45:47;;;;;;;2.42;0.93;;;15.80;99.90;;;;;;5027544;28;20167;-77
2022/10/05 08:48:34;;;;;;;2.65;1.63;;;15.80;99.90;;;;;;5029188;28;20045;-78
2022/10/05 08:51:21;;;;;;;3.70;1.80;;;16.00;99.90;;;;;;5046522;28;20060;-77
2022/10/05 08:54:18;;;;;;;4.82;2.47;;;16.00;99.90;;;;;;5046313;28;20147;-76
2022/10/05 08:57:10;;;;;;;3.15;1.63;;;16.10;99.90;;;;;;5042255;28;20068;-76
2022/10/05 09:00:11;;;;;;;2.50;1.42;;;16.30;99.90;;;;;;5043738;28;20037;-76
2022/10/05 09:02:55;;;;;;;3.28;2.00;;;16.20;99.90;;;;;;5047057;28;20127;-75
2022/10/05 09:05:49;;;;;;;4.38;2.47;;;16.40;99.90;;;;;;5027238;28;20048;-75
2022/10/05 09:08:57;;;;;;;1.88;1.45;;;16.30;99.90;;;;;;5025241;28;20048;-76
2022/10/05 09:11:55;;;;;;;2.00;1.80;;;16.50;99.90;;;;;;5005418;28;20442;-76
2022/10/05 09:15:05;;;;;;;2.42;2.20;;;16.30;99.90;;;;;;5013608;28;20124;-76
2022/10/05 09:18:04;;;;;;;2.30;2.10;;;16.50;99.90;;;;;;5049630;28;20118;-76
2022/10/05 09:20:57;;;;;;;3.30;1.90;;;16.30;99.90;;;;;;5032136;28;20064;-76
2022/10/05 09:23:33;;;;;;;5.22;2.92;;;16.40;99.90;;;;;;5048646;28;20044;-75
2022/10/05 09:26:21;;;;;;;2.85;2.47;;;16.30;99.90;;;;;;5048731;28;20130;-76
2022/10/05 09:29:09;;;;;;;4.72;3.28;;;16.20;99.90;;;;;;5042423;28;20080;-75
2022/10/05 09:31:59;;;;;;;3.22;2.55;;;16.50;99.90;;;;;;5043868;28;20099;-76
2022/10/05 09:34:52;;;;;;;4.53;2.45;;;16.30;99.90;;;;;;5048224;28;20458;-76
2022/10/05 09:37:48;;;;;;;4.88;2.65;;;16.50;99.90;;;;;;5049965;28;20445;-76
2022/10/05 09:40:43;;;;;;;5.78;2.80;;;16.50;99.90;;;;;;5040437;28;20753;-74
2022/10/05 09:43:09;;;;;;;3.83;2.50;;;16.60;99.90;;;;;;5020039;28;20773;-76
2022/10/05 09:46:05;;;;;;;5.88;2.30;;;16.70;99.90;;;;;;5031835;28;20052;-75
2022/10/05 09:49:09;;;;;;;4.63;2.38;;;16.70;99.90;;;;;;5047476;28;20040;-74
2022/10/05 09:52:00;;;;;;;4.72;2.40;;;16.80;99.90;;;;;;5027734;28;20512;-76
2022/10/05 09:54:38;;;;;;;3.75;2.72;;;16.60;99.90;;;;;;5049505;28;20120;-75
2022/10/05 09:57:18;;;;;;;6.90;3.20;;;16.80;99.90;;;;;;5048117;28;20136;-75
2022/10/05 10:00:09;;;;;;;4.10;1.90;;;16.60;99.90;;;;;;5045460;28;20047;-76
2022/10/05 10:02:56;;;;;;;2.95;1.60;;;16.90;99.90;;;;;;5030581;28;20059;-76
2022/10/05 10:05:40;;;;;;;3.22;2.08;;;16.90;99.90;;;;;;5033076;28;20079;-75
2022/10/05 10:08:27;;;;;;;2.65;1.90;;;17.00;99.90;;;;;;5032688;28;20056;-76
2022/10/05 10:11:19;;;;;;;6.00;2.00;;;16.90;99.90;;;;;;5050981;28;20048;-75
2022/10/05 10:13:55;;;;;;;5.53;2.92;;;16.70;99.90;;;;;;5012577;28;20128;-76
2022/10/05 10:16:49;;;;;;;6.85;2.67;;;16.70;99.90;;;;;;5028899;28;20180;-76
2022/10/05 10:19:20;;;;;;;4.82;3.08;;;16.70;99.90;;;;;;5034236;28;20400;-76
2022/10/05 10:21:55;;;;;;;3.38;1.95;;;16.50;99.90;;;;;;5034196;28;20038;-76
2022/10/05 10:24:29;;;;;;;4.25;2.25;;;16.50;99.90;;;;;;5013564;28;20084;-75
2022/10/05 10:27:38;;;;;;;3.75;2.35;;;16.50;99.90;;;;;;5047160;28;20049;-75
2022/10/05 10:30:18;;;;;;;4.10;2.35;;;16.40;99.90;;;;;;4988750;28;20060;-75
2022/10/05 10:32:47;;;;;;;;;;;16.40;99.90;;;;;;5028832;28;20053;-76
2022/10/05 10:35:45;;;;;;;6.53;2.55;;;16.40;99.90;;;;;;5020140;28;20341;-76
2022/10/05 10:38:32;;;;;;;3.38;2.55;;;16.30;99.90;;;;;;5034716;28;20044;-75
2022/10/05 10:41:26;;;;;;;3.95;2.35;;;16.40;99.90;;;;;;5032447;28;20052;-75
2022/10/05 10:44:30;;;;;;;5.35;2.70;;;16.50;99.90;;;;;;5049993;28;20080;-75
2022/10/05 10:47:14;;;;;;;3.42;2.47;;;16.50;99.90;;;;;;5024654;28;20043;-75
2022/10/05 10:49:58;;;;;;;6.90;2.80;;;16.50;99.90;;;;;;5049928;28;20049;-76
2022/10/05 10:52:43;;;;;;;5.05;2.45;;;16.50;99.90;;;;;;5030800;28;20094;-74
2022/10/05 10:55:28;;;;;;;7.53;3.35;;;16.30;99.90;;;;;;5049873;28;20041;-75
2022/10/05 10:58:33;;;;;;;3.20;1.98;;;16.40;99.90;;;;;;5045137;28;20385;-74
2022/10/05 11:01:30;;;;;;;6.40;3.03;;;16.30;99.90;;;;;;5032391;28;20132;-74
2022/10/05 11:04:11;;;;;;;3.90;1.85;;;16.30;99.90;;;;;;5038622;28;20444;-75
2022/10/05 11:07:02;;;;;;;5.97;2.50;;;16.30;99.90;;;;;;5029999;28;20041;-72
2022/10/05 11:09:46;;;;;;;5.68;2.97;;;16.50;99.90;;;;;;5032529;28;20045;-74
2022/10/05 11:12:40;;;;;;;3.20;2.35;;;16.30;99.90;;;;;;5049545;28;20045;-74
2022/10/05 11:15:35;;;;;;;2.95;2.50;;;16.30;99.90;;;;;;5040712;28;20698;-75
2022/10/05 11:18:15;;;;;;;20.33;2.83;;;16.30;99.90;;;;;;5029055;28;20083;-72
2022/10/05 11:20:54;;;;;;;3.42;2.72;;;16.30;99.90;;;;;;5014324;28;20554;-74
2022/10/05 11:23:26;;;;;;;3.33;2.47;;;16.20;99.90;;;;;;5049217;28;20461;-75
2022/10/05 11:26:22;;;;;;;3.53;1.88;;;16.20;99.90;;;;;;5048800;28;20049;-76
2022/10/05 11:29:16;;;;;;;3.78;2.38;;;16.40;99.90;;;;;;5038950;28;20041;-76
2022/10/05 11:32:02;;;;;;;3.33;1.95;;;16.30;99.90;;;;;;5027183;28;20061;-77
2022/10/05 11:34:55;;;;;;;4.45;1.95;;;16.30;99.90;;;;;;5006688;28;20064;-77
2022/10/05 11:37:46;;;;;;;1.80;1.40;;;16.30;99.90;;;;;;5015156;28;20518;-77
2022/10/05 11:40:23;;;;;;;2.05;1.73;;;16.30;99.90;;;;;;5049815;28;20099;-79
2022/10/05 11:43:14;;;;;;;2.28;1.60;;;16.30;99.90;;;;;;5030876;28;20048;-78
2022/10/05 11:46:13;;;;;;;4.60;1.48;;;16.30;99.90;;;;;;5048569;28;20138;-76
2022/10/05 11:48:55;;;;;;;6.93;1.33;;;16.20;99.90;;;;;;5049366;28;20044;-77
2022/10/05 11:51:21;;;;;;;3.85;1.40;;;16.30;99.90;;;;;;5049189;28;20037;-80
2022/10/05 11:53:52;;;;;;;1.48;1.30;;;16.20;99.90;;;;;;5049172;28;20044;-79
2022/10/05 11:56:33;;;;;;;4.38;1.63;;;16.30;99.90;;;;;;5048683;28;20052;-77
2022/10/05 11:59:30;;;;;;;8.90;2.75;;;16.30;99.90;;;;;;5047867;28;20045;-76
2022/10/05 12:02:23;;;;;;;3.03;1.95;;;16.30;99.90;;;;;;5048873;28;20576;-76
2022/10/05 12:05:17;;;;;;;2.63;1.58;;;16.40;99.90;;;;;;5029074;28;20124;-77
2022/10/05 12:07:48;;;;;;;2.78;1.20;;;16.30;99.90;;;;;;5049394;28;20094;-77
2022/10/05 12:10:19;;;;;;;4.07;1.33;;;16.30;99.90;;;;;;5049403;28;20045;-77
2022/10/05 12:13:08;;;;;;;1.75;1.55;;;16.30;99.90;;;;;;5030029;28;20055;-78
2022/10/05 12:15:53;;;;;;;2.22;1.00;;;16.30;99.90;;;;;;5029850;28;20052;-77
2022/10/05 12:18:56;;;;;;;3.63;1.35;;;16.30;99.90;;;;;;5029492;28;20048;-77
2022/10/05 12:21:32;;;;;;;2.00;1.80;;;16.30;99.90;;;;;;5048893;28;20048;-76
2022/10/05 12:24:27;;;;;;;1.17;1.08;;;16.40;99.90;;;;;;5048170;28;20088;-77
2022/10/05 12:27:06;;;;;;;2.75;1.83;;;16.40;99.90;;;;;;5047094;28;20047;-76
2022/10/05 12:30:14;;;;;;;3.35;1.60;;;16.40;99.90;;;;;;5048440;28;20037;-77
2022/10/05 12:32:58;;;;;;;2.45;1.95;;;16.30;99.90;;;;;;4967616;28;20094;-76
2022/10/05 12:35:47;;;;;;;4.60;1.63;;;16.40;99.90;;;;;;5042988;28;20435;-76
2022/10/05 12:38:33;;;;;;;3.03;1.70;;;16.30;99.90;;;;;;5050688;28;20122;-78
2022/10/05 12:41:06;;;;;;;3.05;1.77;;;16.30;99.90;;;;;;5050949;28;20472;-79
2022/10/05 12:43:47;;;;;;;3.63;1.98;;;16.30;99.90;;;;;;5053551;28;20048;-77
2022/10/05 12:46:39;;;;;;;3.50;1.88;;;16.30;99.90;;;;;;5037443;28;20128;-77
2022/10/05 12:49:47;;;;;;;4.68;2.35;;;16.40;99.90;;;;;;5049485;28;20160;-73
2022/10/05 12:52:42;;;;;;;4.07;1.58;;;16.40;99.90;;;;;;5038171;28;20049;-79
2022/10/05 12:55:25;;;;;;;3.17;1.98;;;16.40;99.90;;;;;;5044444;28;20053;-77
2022/10/05 12:58:31;;;;;;;4.25;2.17;;;16.30;99.90;;;;;;5051521;28;20425;-78
2022/10/05 13:01:10;;;;;;;5.03;1.58;;;16.40;99.90;;;;;;5052271;28;20515;-78
2022/10/05 13:03:49;;;;;;;5.57;1.88;;;16.40;99.90;;;;;;5035597;28;20056;-76
2022/10/05 13:06:27;;;;;;;5.07;1.92;;;16.40;99.90;;;;;;5052710;28;20052;-78
2022/10/05 13:09:17;;;;;;;7.43;2.92;;;16.40;99.90;;;;;;5051622;28;20099;-77
2022/10/05 13:11:54;;;;;;;2.85;2.33;;;16.50;99.90;;;;;;5035970;28;20029;-77
2022/10/05 13:14:57;;;;;;;4.35;2.28;;;16.50;99.90;;;;;;5018308;28;20045;-78
2022/10/05 13:17:28;;;;;;;3.17;1.92;;;16.60;99.90;;;;;;5052938;28;20076;-79
2022/10/05 13:19:59;;;;;;;7.65;2.65;;;16.50;99.90;;;;;;5049958;28;20048;-75
2022/10/05 13:22:39;;;;;;;4.15;2.58;;;16.50;99.90;;;;;;5016256;28;20060;-77
2022/10/05 13:25:21;;;;;;;4.03;2.22;;;16.50;99.90;;;;;;5048500;28;20037;-78
2022/10/05 13:28:00;;;;;;;5.70;2.80;;;16.60;99.90;;;;;;5047282;28;20041;-80
2022/10/05 13:30:29;;;;;;;5.00;2.17;;;16.60;99.90;;;;;;5028274;28;20045;-79
2022/10/05 13:33:35;;;;;;;4.18;1.98;;;16.70;99.90;;;;;;5032851;28;20091;-79
2022/10/05 13:36:13;;;;;;;4.63;2.88;;;16.80;99.90;;;;;;4974545;28;20053;-81
2022/10/05 13:38:56;;;;;;;3.95;2.55;;;16.80;99.90;;;;;;5051100;28;20454;-80
2022/10/05 13:41:50;;;;;;;3.83;2.70;;;16.90;99.90;;;;;;5028421;28;20037;-77
2022/10/05 13:44:35;;;;;;;6.35;2.30;;;17.00;99.90;;;;;;5029135;28;20082;-78
2022/10/05 13:47:22;;;;;;;7.50;2.80;;;16.90;99.90;;;;;;5045590;28;20056;-79
2022/10/05 13:50:02;;;;;;;2.95;2.30;;;17.00;99.90;;;;;;5032683;28;20412;-79
2022/10/05 13:52:37;;;;;;;2.33;2.10;;;17.00;99.90;;;;;;5052137;28;20115;-79
2022/10/05 13:55:39;;;;;;;8.88;2.97;;;17.00;99.90;;;;;;5050580;28;20515;-78
2022/10/05 13:58:16;;;;;;;11.02;3.83;;;17.00;99.90;;;;;;5031839;28;20887;-79
2022/10/05 14:00:59;;;;;;;6.22;2.40;;;17.00;99.90;;;;;;5051728;28;20037;-78
2022/10/05 14:03:31;;;;;;;4.40;3.00;;;17.00;99.90;;;;;;5051861;28;20379;-80
2022/10/05 14:05:59;;;;;;;4.25;2.22;;;17.00;99.90;;;;;;5051389;28;20053;-78
2022/10/05 14:08:28;;;;;;;5.90;2.20;;;17.00;99.90;;;;;;5023899;28;20073;-79
2022/10/05 14:10:55;;;;;;;4.43;2.85;;;16.90;99.90;;;;;;5044266;28;20045;-73
2022/10/05 14:13:22;;;;;;;3.60;3.30;;;16.90;99.90;;;;;;5049621;28;20419;-78